sensor_id;sensor_type;location;lat;lon;timestamp;P1;durP1;ratioP1;P2;durP2;ratioP2
6388;SDS011;3227;42.654;23.360;2022-12-29T00:00:00;42.40;;;25.10;;
6388;SDS011;3227;42.654;23.360;2022-12-29T00:02:29;38.50;;;25.30;;
6388;SDS011;3227;42.654;23.360;2022-12-29T00:04:56;41.27;;;25.50;;
6388;SDS011;3227;42.654;23.360;2022-12-29T00:07:23;38.23;;;25.80;;
6388;SDS011;3227;42.654;23.360;2022-12-29T00:09:49;40.20;;;24.93;;
6388;SDS011;3227;42.654;23.360;2022-12-29T00:12:16;40.80;;;26.23;;
6388;SDS011;3227;42.654;23.360;2022-12-29T00:14:44;37.67;;;25.47;;
6388;SDS011;3227;42.654;23.360;2022-12-29T00:17:28;38.97;;;24.03;;
6388;SDS011;3227;42.654;23.360;2022-12-29T00:19:56;36.07;;;22.47;;
6388;SDS011;3227;42.654;23.360;2022-12-29T00:22:40;37.13;;;22.87;;
6388;SDS011;3227;42.654;23.360;2022-12-29T00:25:24;35.77;;;22.27;;
6388;SDS011;3227;42.654;23.360;2022-12-29T00:28:08;34.00;;;21.47;;
6388;SDS011;3227;42.654;23.360;2022-12-29T00:30:54;31.80;;;20.10;;
6388;SDS011;3227;42.654;23.360;2022-12-29T00:33:42;30.23;;;19.57;;
6388;SDS011;3227;42.654;23.360;2022-12-29T00:36:27;34.90;;;21.07;;
6388;SDS011;3227;42.654;23.360;2022-12-29T00:38:58;30.10;;;17.80;;
6388;SDS011;3227;42.654;23.360;2022-12-29T00:41:46;30.57;;;20.23;;
6388;SDS011;3227;42.654;23.360;2022-12-29T00:44:31;30.60;;;20.10;;
6388;SDS011;3227;42.654;23.360;2022-12-29T00:46:59;34.93;;;23.27;;
6388;SDS011;3227;42.654;23.360;2022-12-29T00:49:28;41.90;;;23.80;;
6388;SDS011;3227;42.654;23.360;2022-12-29T00:51:57;39.40;;;24.23;;
6388;SDS011;3227;42.654;23.360;2022-12-29T00:54:26;33.90;;;22.50;;
6388;SDS011;3227;42.654;23.360;2022-12-29T00:56:54;35.57;;;22.00;;
6388;SDS011;3227;42.654;23.360;2022-12-29T00:59:21;33.07;;;20.83;;
6388;SDS011;3227;42.654;23.360;2022-12-29T01:01:49;35.93;;;20.67;;
6388;SDS011;3227;42.654;23.360;2022-12-29T01:04:18;32.40;;;21.37;;
6388;SDS011;3227;42.654;23.360;2022-12-29T01:06:45;28.03;;;18.77;;
6388;SDS011;3227;42.654;23.360;2022-12-29T01:09:12;28.03;;;17.43;;
6388;SDS011;3227;42.654;23.360;2022-12-29T01:11:57;26.50;;;17.47;;
6388;SDS011;3227;42.654;23.360;2022-12-29T01:14:24;26.70;;;17.90;;
6388;SDS011;3227;42.654;23.360;2022-12-29T01:16:51;28.67;;;17.90;;
6388;SDS011;3227;42.654;23.360;2022-12-29T01:19:19;28.27;;;18.30;;
6388;SDS011;3227;42.654;23.360;2022-12-29T01:21:46;28.47;;;17.17;;
6388;SDS011;3227;42.654;23.360;2022-12-29T01:24:14;27.40;;;17.67;;
6388;SDS011;3227;42.654;23.360;2022-12-29T01:26:41;29.47;;;18.57;;
6388;SDS011;3227;42.654;23.360;2022-12-29T01:29:08;28.80;;;18.70;;
6388;SDS011;3227;42.654;23.360;2022-12-29T01:31:35;30.70;;;17.90;;
6388;SDS011;3227;42.654;23.360;2022-12-29T01:34:02;30.47;;;18.57;;
6388;SDS011;3227;42.654;23.360;2022-12-29T01:36:31;31.47;;;19.53;;
6388;SDS011;3227;42.654;23.360;2022-12-29T01:38:58;29.30;;;19.73;;
6388;SDS011;3227;42.654;23.360;2022-12-29T01:41:25;32.87;;;20.03;;
6388;SDS011;3227;42.654;23.360;2022-12-29T01:43:53;30.57;;;19.80;;
6388;SDS011;3227;42.654;23.360;2022-12-29T01:46:23;33.23;;;20.23;;
6388;SDS011;3227;42.654;23.360;2022-12-29T01:48:53;31.03;;;18.90;;
6388;SDS011;3227;42.654;23.360;2022-12-29T01:51:26;29.63;;;17.23;;
6388;SDS011;3227;42.654;23.360;2022-12-29T01:53:57;31.27;;;17.47;;
6388;SDS011;3227;42.654;23.360;2022-12-29T01:56:27;26.53;;;16.67;;
6388;SDS011;3227;42.654;23.360;2022-12-29T01:58:55;26.10;;;16.77;;
6388;SDS011;3227;42.654;23.360;2022-12-29T02:01:27;28.37;;;17.53;;
6388;SDS011;3227;42.654;23.360;2022-12-29T02:03:54;26.97;;;17.37;;
6388;SDS011;3227;42.654;23.360;2022-12-29T02:06:21;30.53;;;18.13;;
6388;SDS011;3227;42.654;23.360;2022-12-29T02:08:52;27.13;;;17.43;;
6388;SDS011;3227;42.654;23.360;2022-12-29T02:11:23;26.40;;;16.47;;
6388;SDS011;3227;42.654;23.360;2022-12-29T02:13:51;26.03;;;16.83;;
6388;SDS011;3227;42.654;23.360;2022-12-29T02:16:30;25.47;;;17.83;;
6388;SDS011;3227;42.654;23.360;2022-12-29T02:19:19;24.30;;;17.13;;
6388;SDS011;3227;42.654;23.360;2022-12-29T02:22:13;28.20;;;18.10;;
6388;SDS011;3227;42.654;23.360;2022-12-29T02:31:08;29.63;;;18.97;;
6388;SDS011;3227;42.654;23.360;2022-12-29T02:33:44;30.87;;;19.03;;
6388;SDS011;3227;42.654;23.360;2022-12-29T02:36:22;30.93;;;19.47;;
6388;SDS011;3227;42.654;23.360;2022-12-29T02:38:57;28.93;;;18.97;;
6388;SDS011;3227;42.654;23.360;2022-12-29T02:41:32;29.60;;;19.50;;
6388;SDS011;3227;42.654;23.360;2022-12-29T02:44:02;29.87;;;19.23;;
6388;SDS011;3227;42.654;23.360;2022-12-29T02:46:36;32.63;;;19.93;;
6388;SDS011;3227;42.654;23.360;2022-12-29T02:49:09;29.20;;;18.53;;
6388;SDS011;3227;42.654;23.360;2022-12-29T02:51:43;31.03;;;19.13;;
6388;SDS011;3227;42.654;23.360;2022-12-29T02:54:16;28.73;;;18.93;;
6388;SDS011;3227;42.654;23.360;2022-12-29T02:57:01;29.13;;;18.90;;
6388;SDS011;3227;42.654;23.360;2022-12-29T02:59:27;28.93;;;18.50;;
6388;SDS011;3227;42.654;23.360;2022-12-29T03:05:12;31.93;;;19.60;;
6388;SDS011;3227;42.654;23.360;2022-12-29T03:07:48;29.77;;;18.93;;
6388;SDS011;3227;42.654;23.360;2022-12-29T03:10:30;31.93;;;19.83;;
6388;SDS011;3227;42.654;23.360;2022-12-29T03:13:02;29.53;;;19.87;;
6388;SDS011;3227;42.654;23.360;2022-12-29T03:15:53;29.70;;;19.93;;
6388;SDS011;3227;42.654;23.360;2022-12-29T03:18:32;30.23;;;19.97;;
6388;SDS011;3227;42.654;23.360;2022-12-29T03:21:07;32.83;;;19.13;;
6388;SDS011;3227;42.654;23.360;2022-12-29T03:23:38;31.63;;;20.37;;
6388;SDS011;3227;42.654;23.360;2022-12-29T03:26:08;34.60;;;20.80;;
6388;SDS011;3227;42.654;23.360;2022-12-29T03:28:38;35.57;;;19.57;;
6388;SDS011;3227;42.654;23.360;2022-12-29T03:31:08;30.60;;;20.57;;
6388;SDS011;3227;42.654;23.360;2022-12-29T03:33:38;30.83;;;20.63;;
6388;SDS011;3227;42.654;23.360;2022-12-29T03:36:08;29.47;;;20.10;;
6388;SDS011;3227;42.654;23.360;2022-12-29T03:38:40;30.87;;;20.33;;
6388;SDS011;3227;42.654;23.360;2022-12-29T03:41:12;29.73;;;19.83;;
6388;SDS011;3227;42.654;23.360;2022-12-29T03:43:42;31.70;;;21.07;;
6388;SDS011;3227;42.654;23.360;2022-12-29T03:46:09;34.40;;;23.40;;
6388;SDS011;3227;42.654;23.360;2022-12-29T03:48:37;38.23;;;23.40;;
6388;SDS011;3227;42.654;23.360;2022-12-29T03:51:04;41.90;;;24.47;;
6388;SDS011;3227;42.654;23.360;2022-12-29T03:53:31;37.23;;;24.77;;
6388;SDS011;3227;42.654;23.360;2022-12-29T03:55:58;36.47;;;23.20;;
6388;SDS011;3227;42.654;23.360;2022-12-29T03:58:25;40.03;;;22.30;;
6388;SDS011;3227;42.654;23.360;2022-12-29T04:00:51;35.93;;;22.37;;
6388;SDS011;3227;42.654;23.360;2022-12-29T04:03:18;34.33;;;20.73;;
6388;SDS011;3227;42.654;23.360;2022-12-29T04:05:46;29.37;;;19.90;;
6388;SDS011;3227;42.654;23.360;2022-12-29T04:08:13;32.53;;;20.17;;
6388;SDS011;3227;42.654;23.360;2022-12-29T04:10:40;37.20;;;21.23;;
6388;SDS011;3227;42.654;23.360;2022-12-29T04:13:06;31.53;;;20.50;;
6388;SDS011;3227;42.654;23.360;2022-12-29T04:15:33;34.17;;;19.40;;
6388;SDS011;3227;42.654;23.360;2022-12-29T04:18:00;31.63;;;20.60;;
6388;SDS011;3227;42.654;23.360;2022-12-29T04:20:27;29.00;;;18.90;;
6388;SDS011;3227;42.654;23.360;2022-12-29T04:23:12;30.17;;;18.47;;
6388;SDS011;3227;42.654;23.360;2022-12-29T04:25:39;28.53;;;18.47;;
6388;SDS011;3227;42.654;23.360;2022-12-29T04:28:06;28.60;;;18.37;;
6388;SDS011;3227;42.654;23.360;2022-12-29T04:30:33;29.87;;;18.43;;
6388;SDS011;3227;42.654;23.360;2022-12-29T04:32:59;25.93;;;17.50;;
6388;SDS011;3227;42.654;23.360;2022-12-29T04:35:26;26.50;;;17.53;;
6388;SDS011;3227;42.654;23.360;2022-12-29T04:37:53;28.27;;;18.03;;
6388;SDS011;3227;42.654;23.360;2022-12-29T04:40:21;28.73;;;19.10;;
6388;SDS011;3227;42.654;23.360;2022-12-29T04:42:49;30.73;;;19.27;;
6388;SDS011;3227;42.654;23.360;2022-12-29T04:45:15;29.53;;;19.23;;
6388;SDS011;3227;42.654;23.360;2022-12-29T04:47:43;32.23;;;19.80;;
6388;SDS011;3227;42.654;23.360;2022-12-29T04:50:09;29.30;;;19.57;;
6388;SDS011;3227;42.654;23.360;2022-12-29T04:52:36;30.10;;;19.63;;
6388;SDS011;3227;42.654;23.360;2022-12-29T04:55:03;33.10;;;20.73;;
6388;SDS011;3227;42.654;23.360;2022-12-29T04:57:32;32.10;;;21.00;;
6388;SDS011;3227;42.654;23.360;2022-12-29T04:59:59;31.07;;;20.17;;
6388;SDS011;3227;42.654;23.360;2022-12-29T05:02:26;33.87;;;20.80;;
6388;SDS011;3227;42.654;23.360;2022-12-29T05:04:53;35.97;;;20.93;;
6388;SDS011;3227;42.654;23.360;2022-12-29T05:07:20;35.73;;;21.37;;
6388;SDS011;3227;42.654;23.360;2022-12-29T05:09:46;37.10;;;20.73;;
6388;SDS011;3227;42.654;23.360;2022-12-29T05:12:13;33.87;;;21.80;;
6388;SDS011;3227;42.654;23.360;2022-12-29T05:14:41;36.37;;;21.53;;
6388;SDS011;3227;42.654;23.360;2022-12-29T05:17:08;40.67;;;22.77;;
6388;SDS011;3227;42.654;23.360;2022-12-29T05:19:35;37.03;;;22.27;;
6388;SDS011;3227;42.654;23.360;2022-12-29T05:22:03;34.30;;;22.67;;
6388;SDS011;3227;42.654;23.360;2022-12-29T05:24:30;35.40;;;23.53;;
6388;SDS011;3227;42.654;23.360;2022-12-29T05:26:57;41.03;;;23.30;;
6388;SDS011;3227;42.654;23.360;2022-12-29T05:29:23;41.23;;;23.27;;
6388;SDS011;3227;42.654;23.360;2022-12-29T05:31:51;35.23;;;23.20;;
6388;SDS011;3227;42.654;23.360;2022-12-29T05:34:18;37.23;;;23.83;;
6388;SDS011;3227;42.654;23.360;2022-12-29T05:36:45;36.43;;;22.83;;
6388;SDS011;3227;42.654;23.360;2022-12-29T05:39:12;33.57;;;22.57;;
6388;SDS011;3227;42.654;23.360;2022-12-29T05:41:38;36.47;;;23.73;;
6388;SDS011;3227;42.654;23.360;2022-12-29T05:44:05;35.47;;;22.13;;
6388;SDS011;3227;42.654;23.360;2022-12-29T05:46:32;38.83;;;22.93;;
6388;SDS011;3227;42.654;23.360;2022-12-29T05:49:01;39.57;;;23.57;;
6388;SDS011;3227;42.654;23.360;2022-12-29T05:51:27;31.63;;;20.33;;
6388;SDS011;3227;42.654;23.360;2022-12-29T05:53:54;36.40;;;22.27;;
6388;SDS011;3227;42.654;23.360;2022-12-29T05:56:21;35.77;;;21.00;;
6388;SDS011;3227;42.654;23.360;2022-12-29T05:58:48;36.07;;;23.27;;
6388;SDS011;3227;42.654;23.360;2022-12-29T06:01:15;39.67;;;24.20;;
6388;SDS011;3227;42.654;23.360;2022-12-29T06:03:41;37.07;;;22.27;;
6388;SDS011;3227;42.654;23.360;2022-12-29T06:06:10;39.03;;;23.50;;
6388;SDS011;3227;42.654;23.360;2022-12-29T06:08:36;40.40;;;25.83;;
6388;SDS011;3227;42.654;23.360;2022-12-29T06:11:03;41.40;;;24.70;;
6388;SDS011;3227;42.654;23.360;2022-12-29T06:13:30;40.80;;;24.97;;
6388;SDS011;3227;42.654;23.360;2022-12-29T06:15:57;39.90;;;25.50;;
6388;SDS011;3227;42.654;23.360;2022-12-29T06:18:24;40.00;;;24.47;;
6388;SDS011;3227;42.654;23.360;2022-12-29T06:20:51;44.43;;;24.87;;
6388;SDS011;3227;42.654;23.360;2022-12-29T06:23:19;42.00;;;25.83;;
6388;SDS011;3227;42.654;23.360;2022-12-29T06:25:46;39.00;;;25.13;;
6388;SDS011;3227;42.654;23.360;2022-12-29T06:28:14;43.00;;;25.77;;
6388;SDS011;3227;42.654;23.360;2022-12-29T06:30:42;39.30;;;24.87;;
6388;SDS011;3227;42.654;23.360;2022-12-29T06:33:10;39.47;;;25.47;;
6388;SDS011;3227;42.654;23.360;2022-12-29T06:35:37;41.07;;;26.03;;
6388;SDS011;3227;42.654;23.360;2022-12-29T06:38:04;36.33;;;24.20;;
6388;SDS011;3227;42.654;23.360;2022-12-29T06:40:32;39.80;;;25.33;;
6388;SDS011;3227;42.654;23.360;2022-12-29T06:42:59;40.03;;;24.40;;
6388;SDS011;3227;42.654;23.360;2022-12-29T06:45:25;39.03;;;24.07;;
6388;SDS011;3227;42.654;23.360;2022-12-29T06:47:52;43.60;;;26.53;;
6388;SDS011;3227;42.654;23.360;2022-12-29T06:50:19;38.50;;;25.77;;
6388;SDS011;3227;42.654;23.360;2022-12-29T06:52:46;37.87;;;26.57;;
6388;SDS011;3227;42.654;23.360;2022-12-29T06:55:13;39.93;;;25.77;;
6388;SDS011;3227;42.654;23.360;2022-12-29T06:57:41;46.07;;;26.90;;
6388;SDS011;3227;42.654;23.360;2022-12-29T07:00:08;39.03;;;25.37;;
6388;SDS011;3227;42.654;23.360;2022-12-29T07:02:35;43.03;;;25.17;;
6388;SDS011;3227;42.654;23.360;2022-12-29T07:05:02;38.83;;;26.20;;
6388;SDS011;3227;42.654;23.360;2022-12-29T07:07:29;41.50;;;25.10;;
6388;SDS011;3227;42.654;23.360;2022-12-29T07:09:56;46.57;;;26.07;;
6388;SDS011;3227;42.654;23.360;2022-12-29T07:12:23;39.03;;;26.00;;
6388;SDS011;3227;42.654;23.360;2022-12-29T07:14:51;38.53;;;26.30;;
6388;SDS011;3227;42.654;23.360;2022-12-29T07:17:18;44.33;;;26.40;;
6388;SDS011;3227;42.654;23.360;2022-12-29T07:19:44;42.50;;;27.43;;
6388;SDS011;3227;42.654;23.360;2022-12-29T07:22:11;38.57;;;25.63;;
6388;SDS011;3227;42.654;23.360;2022-12-29T07:24:38;48.13;;;28.10;;
6388;SDS011;3227;42.654;23.360;2022-12-29T07:27:05;47.80;;;27.50;;
6388;SDS011;3227;42.654;23.360;2022-12-29T07:29:32;43.63;;;26.77;;
6388;SDS011;3227;42.654;23.360;2022-12-29T07:32:00;39.83;;;27.07;;
6388;SDS011;3227;42.654;23.360;2022-12-29T07:34:27;38.43;;;25.80;;
6388;SDS011;3227;42.654;23.360;2022-12-29T07:36:54;42.40;;;27.07;;
6388;SDS011;3227;42.654;23.360;2022-12-29T07:39:21;42.30;;;27.97;;
6388;SDS011;3227;42.654;23.360;2022-12-29T07:41:47;40.77;;;26.23;;
6388;SDS011;3227;42.654;23.360;2022-12-29T07:44:14;36.20;;;25.37;;
6388;SDS011;3227;42.654;23.360;2022-12-29T07:46:41;38.47;;;25.73;;
6388;SDS011;3227;42.654;23.360;2022-12-29T07:49:09;37.70;;;26.97;;
6388;SDS011;3227;42.654;23.360;2022-12-29T07:51:36;39.30;;;26.53;;
6388;SDS011;3227;42.654;23.360;2022-12-29T07:54:03;37.77;;;25.50;;
6388;SDS011;3227;42.654;23.360;2022-12-29T07:56:30;37.63;;;25.70;;
6388;SDS011;3227;42.654;23.360;2022-12-29T07:58:56;46.50;;;27.60;;
6388;SDS011;3227;42.654;23.360;2022-12-29T08:01:23;39.53;;;25.53;;
6388;SDS011;3227;42.654;23.360;2022-12-29T08:03:50;45.63;;;25.47;;
6388;SDS011;3227;42.654;23.360;2022-12-29T08:06:18;36.00;;;26.37;;
6388;SDS011;3227;42.654;23.360;2022-12-29T08:08:45;39.23;;;24.87;;
6388;SDS011;3227;42.654;23.360;2022-12-29T08:11:12;37.13;;;25.63;;
6388;SDS011;3227;42.654;23.360;2022-12-29T08:13:38;37.43;;;25.40;;
6388;SDS011;3227;42.654;23.360;2022-12-29T08:16:05;37.57;;;25.47;;
6388;SDS011;3227;42.654;23.360;2022-12-29T08:18:32;36.40;;;23.73;;
6388;SDS011;3227;42.654;23.360;2022-12-29T08:21:01;43.03;;;24.60;;
6388;SDS011;3227;42.654;23.360;2022-12-29T08:23:30;35.93;;;24.80;;
6388;SDS011;3227;42.654;23.360;2022-12-29T08:25:57;35.20;;;24.23;;
6388;SDS011;3227;42.654;23.360;2022-12-29T08:28:25;36.63;;;24.47;;
6388;SDS011;3227;42.654;23.360;2022-12-29T08:30:52;33.47;;;23.17;;
6388;SDS011;3227;42.654;23.360;2022-12-29T08:33:19;39.00;;;24.57;;
6388;SDS011;3227;42.654;23.360;2022-12-29T08:35:46;36.13;;;23.77;;
6388;SDS011;3227;42.654;23.360;2022-12-29T08:38:13;36.40;;;24.00;;
6388;SDS011;3227;42.654;23.360;2022-12-29T08:40:41;36.50;;;25.20;;
6388;SDS011;3227;42.654;23.360;2022-12-29T08:43:08;36.03;;;24.40;;
6388;SDS011;3227;42.654;23.360;2022-12-29T08:45:34;37.33;;;23.43;;
6388;SDS011;3227;42.654;23.360;2022-12-29T08:48:01;33.80;;;23.37;;
6388;SDS011;3227;42.654;23.360;2022-12-29T08:50:28;35.70;;;22.93;;
6388;SDS011;3227;42.654;23.360;2022-12-29T08:52:55;36.60;;;23.63;;
6388;SDS011;3227;42.654;23.360;2022-12-29T08:55:21;35.37;;;23.43;;
6388;SDS011;3227;42.654;23.360;2022-12-29T08:57:50;33.57;;;23.70;;
6388;SDS011;3227;42.654;23.360;2022-12-29T09:00:17;34.47;;;23.37;;
6388;SDS011;3227;42.654;23.360;2022-12-29T09:02:45;39.13;;;24.57;;
6388;SDS011;3227;42.654;23.360;2022-12-29T09:05:12;37.20;;;24.90;;
6388;SDS011;3227;42.654;23.360;2022-12-29T09:07:39;39.03;;;25.23;;
6388;SDS011;3227;42.654;23.360;2022-12-29T09:10:06;37.40;;;25.27;;
6388;SDS011;3227;42.654;23.360;2022-12-29T09:12:33;36.43;;;24.27;;
6388;SDS011;3227;42.654;23.360;2022-12-29T09:15:01;40.33;;;25.17;;
6388;SDS011;3227;42.654;23.360;2022-12-29T09:17:28;37.17;;;25.67;;
6388;SDS011;3227;42.654;23.360;2022-12-29T09:20:08;36.80;;;24.80;;
6388;SDS011;3227;42.654;23.360;2022-12-29T09:22:35;35.20;;;24.90;;
6388;SDS011;3227;42.654;23.360;2022-12-29T09:25:02;38.03;;;25.27;;
6388;SDS011;3227;42.654;23.360;2022-12-29T09:27:30;33.93;;;24.13;;
6388;SDS011;3227;42.654;23.360;2022-12-29T09:29:56;35.10;;;24.20;;
6388;SDS011;3227;42.654;23.360;2022-12-29T09:32:25;33.70;;;23.27;;
6388;SDS011;3227;42.654;23.360;2022-12-29T09:34:51;35.57;;;22.50;;
6388;SDS011;3227;42.654;23.360;2022-12-29T09:37:18;30.33;;;20.60;;
6388;SDS011;3227;42.654;23.360;2022-12-29T09:39:46;37.60;;;21.97;;
6388;SDS011;3227;42.654;23.360;2022-12-29T09:42:14;33.43;;;20.80;;
6388;SDS011;3227;42.654;23.360;2022-12-29T09:44:48;32.10;;;22.07;;
6388;SDS011;3227;42.654;23.360;2022-12-29T09:47:22;36.47;;;21.57;;
6388;SDS011;3227;42.654;23.360;2022-12-29T09:49:53;35.60;;;23.33;;
6388;SDS011;3227;42.654;23.360;2022-12-29T09:52:22;34.93;;;21.43;;
6388;SDS011;3227;42.654;23.360;2022-12-29T09:54:55;38.73;;;21.83;;
6388;SDS011;3227;42.654;23.360;2022-12-29T09:57:24;34.57;;;22.47;;
6388;SDS011;3227;42.654;23.360;2022-12-29T09:59:55;32.53;;;22.43;;
6388;SDS011;3227;42.654;23.360;2022-12-29T10:02:38;31.47;;;21.27;;
6388;SDS011;3227;42.654;23.360;2022-12-29T10:05:18;36.33;;;21.50;;
6388;SDS011;3227;42.654;23.360;2022-12-29T10:07:55;34.67;;;21.40;;
6388;SDS011;3227;42.654;23.360;2022-12-29T10:10:34;32.33;;;21.57;;
6388;SDS011;3227;42.654;23.360;2022-12-29T10:13:16;35.93;;;23.20;;
6388;SDS011;3227;42.654;23.360;2022-12-29T10:15:54;33.07;;;21.17;;
6388;SDS011;3227;42.654;23.360;2022-12-29T10:18:36;31.07;;;20.73;;
6388;SDS011;3227;42.654;23.360;2022-12-29T10:21:22;35.20;;;21.60;;
6388;SDS011;3227;42.654;23.360;2022-12-29T10:23:59;33.93;;;21.37;;
6388;SDS011;3227;42.654;23.360;2022-12-29T10:26:30;30.70;;;22.53;;
6388;SDS011;3227;42.654;23.360;2022-12-29T10:29:02;39.37;;;22.80;;
6388;SDS011;3227;42.654;23.360;2022-12-29T10:31:32;33.80;;;21.43;;
6388;SDS011;3227;42.654;23.360;2022-12-29T10:34:06;33.30;;;21.13;;
6388;SDS011;3227;42.654;23.360;2022-12-29T10:36:47;35.93;;;22.10;;
6388;SDS011;3227;42.654;23.360;2022-12-29T10:39:16;35.37;;;22.63;;
6388;SDS011;3227;42.654;23.360;2022-12-29T10:41:49;34.47;;;21.23;;
6388;SDS011;3227;42.654;23.360;2022-12-29T10:44:19;33.43;;;21.57;;
6388;SDS011;3227;42.654;23.360;2022-12-29T10:46:50;33.07;;;22.10;;
6388;SDS011;3227;42.654;23.360;2022-12-29T10:49:23;33.87;;;22.93;;
6388;SDS011;3227;42.654;23.360;2022-12-29T10:51:52;32.20;;;22.20;;
6388;SDS011;3227;42.654;23.360;2022-12-29T10:54:23;31.43;;;21.47;;
6388;SDS011;3227;42.654;23.360;2022-12-29T10:56:54;35.07;;;23.47;;
6388;SDS011;3227;42.654;23.360;2022-12-29T10:59:28;33.10;;;21.60;;
6388;SDS011;3227;42.654;23.360;2022-12-29T11:01:58;40.70;;;23.43;;
6388;SDS011;3227;42.654;23.360;2022-12-29T11:04:38;37.73;;;22.60;;
6388;SDS011;3227;42.654;23.360;2022-12-29T11:07:18;35.43;;;23.53;;
6388;SDS011;3227;42.654;23.360;2022-12-29T11:09:46;38.23;;;25.60;;
6388;SDS011;3227;42.654;23.360;2022-12-29T11:12:24;37.10;;;24.67;;
6388;SDS011;3227;42.654;23.360;2022-12-29T11:15:02;35.30;;;25.20;;
6388;SDS011;3227;42.654;23.360;2022-12-29T11:17:45;38.33;;;25.50;;
6388;SDS011;3227;42.654;23.360;2022-12-29T11:20:28;39.10;;;25.10;;
6388;SDS011;3227;42.654;23.360;2022-12-29T11:22:57;35.67;;;25.27;;
6388;SDS011;3227;42.654;23.360;2022-12-29T11:25:24;36.77;;;24.63;;
6388;SDS011;3227;42.654;23.360;2022-12-29T11:27:55;45.83;;;25.33;;
6388;SDS011;3227;42.654;23.360;2022-12-29T11:30:23;39.77;;;24.63;;
6388;SDS011;3227;42.654;23.360;2022-12-29T11:32:51;43.17;;;25.77;;
6388;SDS011;3227;42.654;23.360;2022-12-29T11:35:29;42.80;;;25.37;;
6388;SDS011;3227;42.654;23.360;2022-12-29T11:38:04;37.80;;;26.33;;
6388;SDS011;3227;42.654;23.360;2022-12-29T11:40:31;33.93;;;24.20;;
6388;SDS011;3227;42.654;23.360;2022-12-29T11:43:05;35.03;;;23.67;;
6388;SDS011;3227;42.654;23.360;2022-12-29T11:45:33;38.73;;;25.27;;
6388;SDS011;3227;42.654;23.360;2022-12-29T11:48:06;41.50;;;25.50;;
6388;SDS011;3227;42.654;23.360;2022-12-29T11:50:37;42.70;;;25.33;;
6388;SDS011;3227;42.654;23.360;2022-12-29T11:53:08;42.47;;;25.07;;
6388;SDS011;3227;42.654;23.360;2022-12-29T11:55:50;38.40;;;25.63;;
6388;SDS011;3227;42.654;23.360;2022-12-29T11:58:18;39.50;;;25.30;;
6388;SDS011;3227;42.654;23.360;2022-12-29T12:00:45;36.97;;;24.53;;
6388;SDS011;3227;42.654;23.360;2022-12-29T12:03:15;39.70;;;25.43;;
6388;SDS011;3227;42.654;23.360;2022-12-29T12:05:47;37.20;;;24.87;;
6388;SDS011;3227;42.654;23.360;2022-12-29T12:08:20;38.20;;;25.03;;
6388;SDS011;3227;42.654;23.360;2022-12-29T12:10:59;39.97;;;27.52;;
6388;SDS011;3227;42.654;23.360;2022-12-29T12:13:33;38.43;;;25.83;;
6388;SDS011;3227;42.654;23.360;2022-12-29T12:16:04;43.13;;;25.80;;
6388;SDS011;3227;42.654;23.360;2022-12-29T12:18:37;37.43;;;25.50;;
6388;SDS011;3227;42.654;23.360;2022-12-29T12:21:10;39.27;;;24.77;;
6388;SDS011;3227;42.654;23.360;2022-12-29T12:23:47;35.83;;;24.00;;
6388;SDS011;3227;42.654;23.360;2022-12-29T12:26:28;39.70;;;22.80;;
6388;SDS011;3227;42.654;23.360;2022-12-29T12:28:59;35.93;;;24.10;;
6388;SDS011;3227;42.654;23.360;2022-12-29T12:31:35;33.87;;;24.30;;
6388;SDS011;3227;42.654;23.360;2022-12-29T12:34:13;39.73;;;24.87;;
6388;SDS011;3227;42.654;23.360;2022-12-29T12:36:52;35.60;;;23.50;;
6388;SDS011;3227;42.654;23.360;2022-12-29T12:39:38;34.10;;;22.67;;
6388;SDS011;3227;42.654;23.360;2022-12-29T12:42:18;35.07;;;23.70;;
6388;SDS011;3227;42.654;23.360;2022-12-29T12:44:58;41.93;;;24.40;;
6388;SDS011;3227;42.654;23.360;2022-12-29T12:47:49;39.53;;;24.07;;
6388;SDS011;3227;42.654;23.360;2022-12-29T12:50:27;39.10;;;24.30;;
6388;SDS011;3227;42.654;23.360;2022-12-29T12:53:12;39.77;;;25.10;;
6388;SDS011;3227;42.654;23.360;2022-12-29T12:56:00;34.93;;;23.53;;
6388;SDS011;3227;42.654;23.360;2022-12-29T12:58:39;41.50;;;23.73;;
6388;SDS011;3227;42.654;23.360;2022-12-29T13:01:18;33.80;;;23.97;;
6388;SDS011;3227;42.654;23.360;2022-12-29T13:04:15;37.27;;;24.33;;
6388;SDS011;3227;42.654;23.360;2022-12-29T13:07:08;36.33;;;24.27;;
6388;SDS011;3227;42.654;23.360;2022-12-29T13:09:50;39.17;;;25.53;;
6388;SDS011;3227;42.654;23.360;2022-12-29T13:12:29;34.93;;;22.90;;
6388;SDS011;3227;42.654;23.360;2022-12-29T13:15:13;39.50;;;24.70;;
6388;SDS011;3227;42.654;23.360;2022-12-29T13:17:49;41.13;;;24.80;;
6388;SDS011;3227;42.654;23.360;2022-12-29T13:20:25;35.23;;;24.00;;
6388;SDS011;3227;42.654;23.360;2022-12-29T13:23:00;38.13;;;24.43;;
6388;SDS011;3227;42.654;23.360;2022-12-29T13:25:33;35.53;;;24.73;;
6388;SDS011;3227;42.654;23.360;2022-12-29T13:28:09;39.13;;;24.63;;
6388;SDS011;3227;42.654;23.360;2022-12-29T13:30:44;38.63;;;24.40;;
6388;SDS011;3227;42.654;23.360;2022-12-29T13:33:21;37.70;;;23.90;;
6388;SDS011;3227;42.654;23.360;2022-12-29T13:35:59;36.20;;;24.40;;
6388;SDS011;3227;42.654;23.360;2022-12-29T13:38:30;41.20;;;25.10;;
6388;SDS011;3227;42.654;23.360;2022-12-29T13:41:04;41.67;;;24.07;;
6388;SDS011;3227;42.654;23.360;2022-12-29T13:43:35;40.80;;;24.73;;
6388;SDS011;3227;42.654;23.360;2022-12-29T13:46:07;36.63;;;24.63;;
6388;SDS011;3227;42.654;23.360;2022-12-29T13:48:38;36.00;;;23.50;;
6388;SDS011;3227;42.654;23.360;2022-12-29T13:51:09;37.00;;;24.67;;
6388;SDS011;3227;42.654;23.360;2022-12-29T13:53:41;38.73;;;23.60;;
6388;SDS011;3227;42.654;23.360;2022-12-29T13:56:39;43.40;;;25.30;;
6388;SDS011;3227;42.654;23.360;2022-12-29T13:59:13;36.97;;;25.17;;
6388;SDS011;3227;42.654;23.360;2022-12-29T14:01:47;37.90;;;24.73;;
6388;SDS011;3227;42.654;23.360;2022-12-29T14:04:21;40.33;;;25.13;;
6388;SDS011;3227;42.654;23.360;2022-12-29T14:07:00;46.40;;;25.30;;
6388;SDS011;3227;42.654;23.360;2022-12-29T14:12:23;45.63;;;24.93;;
6388;SDS011;3227;42.654;23.360;2022-12-29T14:15:19;39.23;;;25.73;;
6388;SDS011;3227;42.654;23.360;2022-12-29T14:18:09;42.50;;;25.90;;
6388;SDS011;3227;42.654;23.360;2022-12-29T14:20:46;43.73;;;26.37;;
6388;SDS011;3227;42.654;23.360;2022-12-29T14:23:25;43.20;;;27.17;;
6388;SDS011;3227;42.654;23.360;2022-12-29T14:28:42;44.03;;;26.47;;
6388;SDS011;3227;42.654;23.360;2022-12-29T14:37:03;41.07;;;25.60;;
6388;SDS011;3227;42.654;23.360;2022-12-29T14:39:31;41.87;;;25.77;;
6388;SDS011;3227;42.654;23.360;2022-12-29T14:42:01;39.47;;;25.17;;
6388;SDS011;3227;42.654;23.360;2022-12-29T14:44:32;37.33;;;22.77;;
6388;SDS011;3227;42.654;23.360;2022-12-29T14:47:00;33.83;;;22.17;;
6388;SDS011;3227;42.654;23.360;2022-12-29T14:49:32;38.43;;;24.13;;
6388;SDS011;3227;42.654;23.360;2022-12-29T14:52:06;39.07;;;24.17;;
6388;SDS011;3227;42.654;23.360;2022-12-29T14:54:50;45.93;;;25.17;;
6388;SDS011;3227;42.654;23.360;2022-12-29T14:57:24;46.20;;;26.27;;
6388;SDS011;3227;42.654;23.360;2022-12-29T14:59:55;44.17;;;26.23;;
6388;SDS011;3227;42.654;23.360;2022-12-29T15:02:32;42.70;;;26.53;;
6388;SDS011;3227;42.654;23.360;2022-12-29T15:05:03;43.40;;;25.90;;
6388;SDS011;3227;42.654;23.360;2022-12-29T15:07:32;50.13;;;28.97;;
6388;SDS011;3227;42.654;23.360;2022-12-29T15:10:03;47.77;;;29.90;;
6388;SDS011;3227;42.654;23.360;2022-12-29T15:12:36;52.80;;;32.20;;
6388;SDS011;3227;42.654;23.360;2022-12-29T15:15:18;63.10;;;34.00;;
6388;SDS011;3227;42.654;23.360;2022-12-29T15:17:47;57.27;;;32.97;;